createdAt,value
2019-02-21T00:00:52.797Z,29.40
2019-02-21T00:03:21.853Z,26.03
2019-02-21T00:05:51.179Z,25.87
2019-02-21T00:08:20.231Z,27.23
2019-02-21T00:10:49.186Z,26.93
2019-02-21T00:13:18.229Z,24.47
2019-02-21T00:15:47.233Z,24.53
2019-02-21T00:18:16.691Z,25.33
2019-02-21T00:20:45.734Z,21.37
2019-02-21T00:23:14.749Z,24.47
2019-02-21T00:25:44.165Z,23.40
2019-02-21T00:28:13.182Z,22.43
2019-02-21T00:30:42.198Z,23.07
2019-02-21T00:33:11.579Z,21.60
2019-02-21T00:35:40.589Z,22.10
2019-02-21T00:38:09.537Z,21.97
2019-02-21T00:40:38.578Z,21.33
2019-02-21T00:43:07.597Z,20.70
2019-02-21T00:45:36.653Z,20.17
2019-02-21T00:48:05.676Z,22.30
2019-02-21T00:50:34.617Z,20.50
2019-02-21T00:53:04.028Z,19.20
2019-02-21T00:55:33.045Z,17.50
2019-02-21T00:58:02.106Z,17.60
2019-02-21T01:00:31.487Z,19.50
2019-02-21T01:03:00.497Z,18.60
2019-02-21T01:05:29.553Z,17.67
2019-02-21T01:07:58.574Z,17.97
2019-02-21T01:10:27.642Z,19.10
2019-02-21T01:12:56.667Z,25.20
2019-02-21T01:15:25.737Z,17.47
2019-02-21T01:17:54.801Z,17.00
2019-02-21T01:20:23.855Z,17.60
2019-02-21T01:22:52.882Z,18.80
2019-02-21T01:25:22.199Z,18.37
2019-02-21T01:27:51.261Z,18.23
2019-02-21T01:30:20.188Z,18.87
2019-02-21T01:32:49.210Z,19.30
2019-02-21T01:35:18.279Z,18.70
2019-02-21T01:37:47.209Z,19.50
2019-02-21T01:40:16.226Z,19.43
2019-02-21T01:42:45.652Z,20.53
2019-02-21T01:45:14.658Z,19.07
2019-02-21T01:47:43.594Z,19.10
2019-02-21T01:50:12.760Z,20.40
2019-02-21T01:52:41.997Z,20.17
2019-02-21T01:55:11.155Z,20.23
2019-02-21T01:57:40.250Z,21.07
2019-02-21T02:00:09.933Z,20.80
2019-02-21T02:02:38.982Z,20.93
2019-02-21T02:05:08.320Z,20.77
2019-02-21T02:07:38.287Z,21.87
2019-02-21T02:10:08.131Z,21.17
2019-02-21T02:12:37.147Z,23.07
2019-02-21T02:15:06.998Z,22.03
2019-02-21T02:17:36.067Z,23.23
2019-02-21T02:20:05.262Z,23.97
2019-02-21T02:22:34.335Z,24.10
2019-02-21T02:25:03.341Z,24.13
2019-02-21T02:27:32.326Z,25.23
2019-02-21T02:30:01.353Z,25.53
2019-02-21T02:32:30.423Z,23.83
2019-02-21T02:35:00.026Z,26.20
2019-02-21T02:37:29.217Z,27.40
2019-02-21T02:39:58.309Z,30.37
2019-02-21T02:42:27.222Z,31.87
2019-02-21T02:44:56.233Z,29.10
2019-02-21T02:47:25.291Z,31.77
2019-02-21T02:49:54.214Z,27.07
2019-02-21T02:52:23.237Z,32.30
2019-02-21T02:54:52.171Z,33.90
2019-02-21T02:57:21.151Z,32.20
2019-02-21T02:59:50.222Z,29.47
2019-02-21T03:02:19.242Z,31.57
2019-02-21T03:04:48.700Z,36.70
2019-02-21T03:07:18.026Z,35.43
2019-02-21T03:09:47.475Z,34.93
2019-02-21T03:12:16.455Z,36.60
2019-02-21T03:14:45.498Z,35.77
2019-02-21T03:18:02.970Z,41.13
2019-02-21T03:20:32.330Z,35.57
2019-02-21T03:23:01.653Z,36.77
2019-02-21T03:25:30.682Z,35.93
2019-02-21T03:27:59.848Z,36.00
2019-02-21T03:30:28.989Z,40.60
2019-02-21T03:32:58.345Z,38.73
2019-02-21T03:35:27.408Z,38.20
2019-02-21T03:37:56.452Z,39.17
2019-02-21T03:40:25.473Z,42.03
2019-02-21T03:42:54.511Z,39.50
2019-02-21T03:45:23.619Z,38.27
2019-02-21T03:47:53.038Z,50.30
2019-02-21T03:50:22.085Z,38.23
2019-02-21T03:52:51.103Z,41.00
2019-02-21T03:55:20.168Z,41.93
2019-02-21T03:57:49.494Z,37.70
2019-02-21T04:00:18.583Z,37.83
2019-02-21T04:02:47.590Z,42.70
2019-02-21T04:05:16.606Z,39.57
2019-02-21T04:07:45.682Z,41.47
2019-02-21T04:24:21.791Z,42.57
2019-02-21T04:26:51.101Z,47.87
2019-02-21T04:29:20.118Z,47.40
2019-02-21T04:31:49.423Z,42.70
2019-02-21T04:34:18.722Z,43.47
2019-02-21T04:36:48.086Z,42.47
2019-02-21T04:39:17.139Z,49.47
2019-02-21T04:41:46.442Z,47.70
2019-02-21T04:44:15.501Z,53.57
2019-02-21T04:46:44.561Z,50.17
2019-02-21T04:49:13.586Z,56.37
2019-02-21T04:51:42.650Z,54.20
2019-02-21T04:54:11.682Z,50.73
2019-02-21T04:56:40.820Z,51.07
2019-02-21T04:59:09.813Z,56.73
2019-02-21T05:01:40.412Z,67.17
2019-02-21T05:04:09.602Z,47.23
2019-02-21T05:06:38.721Z,58.80
2019-02-21T05:09:07.724Z,52.40
2019-02-21T05:11:36.733Z,55.87
2019-02-21T05:14:05.814Z,53.70
2019-02-21T05:16:34.817Z,49.40
2019-02-21T05:19:04.214Z,48.20
2019-02-21T05:21:33.327Z,48.90
2019-02-21T05:24:02.331Z,56.03
2019-02-21T05:26:36.871Z,48.23
2019-02-21T05:29:07.955Z,47.90
2019-02-21T05:31:44.543Z,59.13
2019-02-21T05:34:31.481Z,52.43
2019-02-21T05:37:34.944Z,55.13
2019-02-21T05:40:17.204Z,47.57
2019-02-21T05:43:03.264Z,52.90
2019-02-21T05:45:50.137Z,60.13
2019-02-21T05:48:40.086Z,57.57
2019-02-21T05:51:21.826Z,56.13
2019-02-21T05:54:12.706Z,58.47
2019-02-21T05:56:58.944Z,59.50
2019-02-21T05:59:45.221Z,53.20
2019-02-21T06:02:33.232Z,67.13
2019-02-21T06:05:14.033Z,56.70
2019-02-21T06:08:01.199Z,49.93
2019-02-21T06:10:48.166Z,59.07
2019-02-21T06:13:28.114Z,52.00
2019-02-21T06:16:32.999Z,61.43
2019-02-21T06:19:16.651Z,56.37
2019-02-21T06:22:10.622Z,49.17
2019-02-21T06:24:43.307Z,62.83
2019-02-21T06:27:31.342Z,53.83
2019-02-21T06:30:10.828Z,54.57
2019-02-21T06:32:40.782Z,60.23
2019-02-21T06:35:10.140Z,61.53
2019-02-21T06:37:39.078Z,56.57
2019-02-21T06:40:08.200Z,58.33
2019-02-21T06:42:37.355Z,54.87
2019-02-21T06:45:06.544Z,51.33
2019-02-21T06:47:35.877Z,57.90
2019-02-21T06:50:05.109Z,57.60
2019-02-21T06:52:34.170Z,54.70
2019-02-21T06:55:03.186Z,55.67
2019-02-21T06:57:32.901Z,52.27
2019-02-21T07:00:02.013Z,55.73
2019-02-21T07:02:31.423Z,68.00
2019-02-21T07:05:00.693Z,50.87
2019-02-21T07:07:29.746Z,53.07
2019-02-21T07:09:58.798Z,55.40
2019-02-21T07:12:27.838Z,55.90
2019-02-21T07:14:56.888Z,60.83
2019-02-21T07:17:27.538Z,65.93
2019-02-21T07:19:56.733Z,50.00
2019-02-21T07:22:25.740Z,52.43
2019-02-21T07:24:58.569Z,49.30
2019-02-21T07:27:27.612Z,64.83
2019-02-21T07:29:56.574Z,56.20
2019-02-21T07:32:25.689Z,67.23
2019-02-21T07:34:54.708Z,54.80
2019-02-21T07:37:23.749Z,48.67
2019-02-21T07:39:52.791Z,60.33
2019-02-21T07:42:21.809Z,65.67
2019-02-21T07:44:51.064Z,57.13
2019-02-21T07:47:20.086Z,46.20
2019-02-21T07:49:49.098Z,60.43
2019-02-21T07:52:18.098Z,70.13
2019-02-21T07:54:49.483Z,60.23
2019-02-21T07:57:17.882Z,63.23
2019-02-21T07:59:46.905Z,60.57
2019-02-21T08:02:15.914Z,70.47
2019-02-21T08:04:44.838Z,52.10
2019-02-21T08:07:13.841Z,55.40
2019-02-21T08:09:42.887Z,61.30
2019-02-21T08:12:11.938Z,56.47
2019-02-21T08:14:43.353Z,65.03
2019-02-21T08:17:16.311Z,63.20
2019-02-21T08:19:45.520Z,65.23
2019-02-21T08:22:14.959Z,61.93
2019-02-21T08:24:44.014Z,58.87
2019-02-21T08:27:13.078Z,66.47
2019-02-21T08:29:42.094Z,62.80
2019-02-21T08:32:12.859Z,75.73
2019-02-21T08:34:45.016Z,62.60
2019-02-21T08:37:14.030Z,71.17
2019-02-21T08:39:43.085Z,76.37
2019-02-21T08:42:12.095Z,67.50
2019-02-21T08:44:41.152Z,70.17
2019-02-21T08:47:11.455Z,68.97
2019-02-21T08:49:40.493Z,60.83
2019-02-21T08:52:09.476Z,62.73
2019-02-21T08:54:38.487Z,64.60
2019-02-21T08:57:07.537Z,65.93
2019-02-21T08:59:36.597Z,72.33
2019-02-21T09:02:05.921Z,53.97
2019-02-21T09:04:35.290Z,63.67
2019-02-21T09:07:04.344Z,55.03
2019-02-21T09:09:33.577Z,57.37
2019-02-21T09:12:05.423Z,52.80
2019-02-21T09:14:33.639Z,61.17
2019-02-21T09:17:02.649Z,60.97
2019-02-21T09:19:31.673Z,60.60
2019-02-21T09:22:00.706Z,59.00
2019-02-21T09:24:38.260Z,58.90
2019-02-21T09:27:00.509Z,52.87
2019-02-21T09:29:29.505Z,63.80
2019-02-21T09:31:58.569Z,50.57
2019-02-21T09:34:27.578Z,49.10
2019-02-21T09:36:56.519Z,66.00
2019-02-21T09:39:25.578Z,56.30
2019-02-21T09:41:54.623Z,53.50
2019-02-21T09:44:27.252Z,62.13
2019-02-21T09:46:54.366Z,59.73
2019-02-21T09:49:23.384Z,53.97
2019-02-21T09:51:52.442Z,57.03
2019-02-21T09:54:21.451Z,69.10
2019-02-21T09:56:53.030Z,65.23
2019-02-21T09:59:21.490Z,55.10
2019-02-21T10:01:50.534Z,47.80
2019-02-21T10:04:19.584Z,52.03
2019-02-21T10:06:48.638Z,47.90
2019-02-21T10:09:17.650Z,54.43
2019-02-21T10:11:46.701Z,50.93
2019-02-21T10:14:15.713Z,50.20
2019-02-21T10:16:44.818Z,52.27
2019-02-21T10:19:13.834Z,48.57
2019-02-21T10:21:42.848Z,54.90
2019-02-21T10:24:11.897Z,59.33
2019-02-21T10:26:40.950Z,57.43
2019-02-21T10:29:09.966Z,53.67
2019-02-21T10:31:38.976Z,58.63
2019-02-21T10:34:08.026Z,44.53
2019-02-21T10:36:37.069Z,53.27
2019-02-21T10:39:07.043Z,47.20
2019-02-21T10:41:36.089Z,52.67
2019-02-21T10:44:05.136Z,55.97
2019-02-21T10:46:34.470Z,51.60
2019-02-21T10:49:03.573Z,45.93
2019-02-21T10:51:32.604Z,67.77
2019-02-21T10:54:01.617Z,57.83
2019-02-21T10:56:30.698Z,49.33
2019-02-21T10:58:59.757Z,43.60
2019-02-21T11:01:29.029Z,47.93
2019-02-21T11:03:58.024Z,57.97
2019-02-21T11:06:27.038Z,44.93
2019-02-21T11:08:56.074Z,43.03
2019-02-21T11:11:25.213Z,51.83
2019-02-21T11:13:54.267Z,51.77
2019-02-21T11:16:23.338Z,54.23
2019-02-21T11:18:52.355Z,56.40
2019-02-21T11:21:21.459Z,46.03
2019-02-21T11:23:50.462Z,61.53
2019-02-21T11:26:19.522Z,45.23
2019-02-21T11:28:48.543Z,43.27
2019-02-21T11:31:17.529Z,60.43
2019-02-21T11:33:46.555Z,43.70
2019-02-21T11:36:15.616Z,41.70
2019-02-21T11:38:44.694Z,34.47
2019-02-21T11:41:14.082Z,40.20
2019-02-21T11:43:43.139Z,50.67
2019-02-21T11:46:12.426Z,47.50
2019-02-21T11:48:41.470Z,43.20
2019-02-21T11:51:10.527Z,40.97
2019-02-21T11:53:39.592Z,40.67
2019-02-21T11:56:08.643Z,43.10
2019-02-21T11:58:37.661Z,42.07
2019-02-21T12:01:09.860Z,36.43
2019-02-21T12:03:39.281Z,37.37
2019-02-21T12:06:08.293Z,40.70
2019-02-21T12:08:37.346Z,33.80
2019-02-21T12:11:06.358Z,31.97
2019-02-21T12:13:35.412Z,34.70
2019-02-21T12:16:04.475Z,31.17
2019-02-21T12:18:33.411Z,32.70
2019-02-21T12:21:02.434Z,29.70
2019-02-21T12:23:31.503Z,27.47
2019-02-21T12:26:00.513Z,31.03
2019-02-21T12:28:29.534Z,29.30
2019-02-21T12:30:59.427Z,32.80
2019-02-21T12:33:28.446Z,35.97
2019-02-21T12:35:59.434Z,26.97
2019-02-21T12:38:28.522Z,33.50
2019-02-21T12:40:57.462Z,29.20
2019-02-21T12:43:26.518Z,28.13
2019-02-21T12:46:00.721Z,32.47
2019-02-21T12:48:29.748Z,28.43
2019-02-21T12:50:59.034Z,28.27
2019-02-21T12:53:28.358Z,28.17
2019-02-21T12:55:57.471Z,28.70
2019-02-21T12:58:26.810Z,26.17
2019-02-21T13:00:55.823Z,26.23
2019-02-21T13:03:24.854Z,27.47
2019-02-21T13:05:53.865Z,26.97
2019-02-21T13:08:22.917Z,29.13
2019-02-21T13:10:51.926Z,30.40
2019-02-21T13:13:20.905Z,28.80
2019-02-21T13:15:50.214Z,28.80
2019-02-21T13:18:19.268Z,38.03
2019-02-21T13:20:48.616Z,31.70
2019-02-21T13:23:17.672Z,31.33
2019-02-21T13:25:46.687Z,37.33
2019-02-21T13:28:15.736Z,30.43
2019-02-21T13:30:44.759Z,34.27
2019-02-21T13:33:13.753Z,32.93
2019-02-21T13:35:52.304Z,40.60
2019-02-21T13:38:13.833Z,44.97
2019-02-21T13:40:42.837Z,37.17
2019-02-21T13:43:11.894Z,37.90
2019-02-21T13:45:40.946Z,38.23
2019-02-21T13:48:09.955Z,44.37
2019-02-21T13:50:39.091Z,36.47
2019-02-21T13:53:08.108Z,35.50
2019-02-21T13:55:37.186Z,39.50
2019-02-21T13:58:06.203Z,47.83
2019-02-21T14:00:35.250Z,48.30
2019-02-21T14:03:04.311Z,45.80
2019-02-21T14:05:33.325Z,45.17
2019-02-21T14:08:02.333Z,37.50
2019-02-21T14:10:31.391Z,40.03
2019-02-21T14:13:00.478Z,47.00
2019-02-21T14:15:29.493Z,48.40
2019-02-21T14:17:58.466Z,44.70
2019-02-21T14:20:27.540Z,56.07
2019-02-21T14:22:56.609Z,50.07
2019-02-21T14:25:28.089Z,40.33
2019-02-21T14:27:56.334Z,41.20
2019-02-21T14:30:25.427Z,45.03
2019-02-21T14:32:54.479Z,45.27
2019-02-21T14:35:23.483Z,42.13
2019-02-21T14:37:52.520Z,31.63
2019-02-21T14:40:21.544Z,43.37
2019-02-21T14:42:50.586Z,37.37
2019-02-21T14:45:19.657Z,40.50
2019-02-21T14:47:48.697Z,48.13
2019-02-21T14:50:17.714Z,38.37
2019-02-21T14:52:47.054Z,38.63
2019-02-21T14:55:16.097Z,39.70
2019-02-21T14:57:45.381Z,32.00
2019-02-21T15:00:20.134Z,35.23
2019-02-21T15:02:49.144Z,31.43
2019-02-21T15:05:18.591Z,35.13
2019-02-21T15:07:47.643Z,25.87
2019-02-21T15:10:16.948Z,30.20
2019-02-21T15:12:45.989Z,27.53
2019-02-21T15:15:16.194Z,29.13
2019-02-21T15:17:45.573Z,30.00
2019-02-21T15:20:15.418Z,23.97
2019-02-21T15:22:44.452Z,28.07
2019-02-21T15:25:13.911Z,30.17
2019-02-21T15:27:42.935Z,28.77
2019-02-21T15:30:14.516Z,26.40
2019-02-21T15:32:44.932Z,30.43
2019-02-21T15:35:14.571Z,25.70
2019-02-21T15:37:45.084Z,31.83
2019-02-21T15:40:14.314Z,26.93
2019-02-21T15:42:43.483Z,26.30
2019-02-21T15:45:22.425Z,27.90
2019-02-21T15:47:45.343Z,28.10
2019-02-21T15:50:14.399Z,31.80
2019-02-21T15:52:43.999Z,29.97
2019-02-21T15:55:14.053Z,39.27
2019-02-21T15:57:43.115Z,33.33
2019-02-21T16:00:14.257Z,35.27
2019-02-21T16:02:43.273Z,34.80
2019-02-21T16:05:12.321Z,34.20
2019-02-21T16:07:41.371Z,35.30
2019-02-21T16:10:12.786Z,36.57
2019-02-21T16:12:42.299Z,32.70
2019-02-21T16:15:12.207Z,33.37
2019-02-21T16:17:41.212Z,44.33
2019-02-21T16:20:11.669Z,37.70
2019-02-21T16:22:41.034Z,41.73
2019-02-21T16:25:12.017Z,42.47
2019-02-21T16:27:41.029Z,38.93
2019-02-21T16:30:12.807Z,38.10
2019-02-21T16:32:42.017Z,30.10
2019-02-21T16:35:11.427Z,34.00
2019-02-21T16:37:40.497Z,35.70
2019-02-21T16:40:11.088Z,37.07
2019-02-21T16:42:40.128Z,43.00
2019-02-21T16:45:10.715Z,44.90
2019-02-21T16:47:39.723Z,44.37
2019-02-21T16:50:09.784Z,34.50
2019-02-21T16:52:38.843Z,50.57
2019-02-21T16:55:09.825Z,45.40
2019-02-21T16:57:38.891Z,53.20
2019-02-21T17:00:09.076Z,64.93
2019-02-21T17:02:38.087Z,57.50
2019-02-21T17:05:07.384Z,57.23
2019-02-21T17:07:36.430Z,69.33
2019-02-21T17:10:05.869Z,63.77
2019-02-21T17:12:37.004Z,69.23
2019-02-21T17:15:05.984Z,68.73
2019-02-21T17:17:34.989Z,71.10
2019-02-21T17:20:04.412Z,66.20
2019-02-21T17:22:33.439Z,65.77
2019-02-21T17:25:02.485Z,59.60
2019-02-21T17:27:31.506Z,63.57
2019-02-21T17:30:00.559Z,61.63
2019-02-21T17:32:29.642Z,58.73
2019-02-21T17:34:58.705Z,77.57
2019-02-21T17:37:27.726Z,76.53
2019-02-21T17:39:56.739Z,62.00
2019-02-21T17:42:25.804Z,64.23
2019-02-21T17:44:54.730Z,83.33
2019-02-21T17:47:23.738Z,57.70
2019-02-21T17:49:52.788Z,67.50
2019-02-21T17:52:21.818Z,94.67
2019-02-21T17:54:50.869Z,78.90
2019-02-21T17:57:19.995Z,107.37
2019-02-21T17:59:49.258Z,107.83
2019-02-21T18:02:18.269Z,78.73
2019-02-21T18:04:47.325Z,96.43
2019-02-21T18:07:16.352Z,73.93
2019-02-21T18:09:45.412Z,78.77
2019-02-21T18:12:14.339Z,84.60
2019-02-21T18:14:43.361Z,97.00
2019-02-21T18:17:12.412Z,119.67
2019-02-21T18:19:41.469Z,128.73
2019-02-21T18:22:10.516Z,104.33
2019-02-21T18:24:39.580Z,139.57
2019-02-21T18:27:08.594Z,110.07
2019-02-21T18:29:37.649Z,115.27
2019-02-21T18:32:06.761Z,110.10
2019-02-21T18:34:35.811Z,101.77
2019-02-21T18:37:04.925Z,119.53
2019-02-21T18:39:33.987Z,114.17
2019-02-21T18:42:02.999Z,122.67
2019-02-21T18:44:32.027Z,128.03
2019-02-21T18:47:01.075Z,154.40
2019-02-21T18:49:30.157Z,120.67
2019-02-21T18:51:59.176Z,165.23
2019-02-21T18:54:28.207Z,113.37
2019-02-21T18:56:57.300Z,158.17
2019-02-21T18:59:31.694Z,160.23
2019-02-21T19:01:57.396Z,133.87
2019-02-21T19:04:26.458Z,143.17
2019-02-21T19:06:55.473Z,145.43
2019-02-21T19:09:24.594Z,143.93
2019-02-21T19:11:53.651Z,152.47
2019-02-21T19:14:22.713Z,167.93
2019-02-21T19:16:51.791Z,183.80
2019-02-21T19:19:20.846Z,127.73
2019-02-21T19:21:49.898Z,122.40
2019-02-21T19:24:18.947Z,110.47
2019-02-21T19:26:48.033Z,152.53
2019-02-21T19:29:17.054Z,95.90
2019-02-21T19:31:46.232Z,124.57
2019-02-21T19:34:15.251Z,148.60
2019-02-21T19:36:44.268Z,127.67
2019-02-21T19:39:13.338Z,135.30
2019-02-21T19:41:42.425Z,117.80
2019-02-21T19:44:11.479Z,114.33
2019-02-21T19:46:40.535Z,142.67
2019-02-21T19:49:09.588Z,136.80
2019-02-21T19:51:38.644Z,171.30
2019-02-21T19:54:07.670Z,124.37
2019-02-21T19:56:36.741Z,159.63
2019-02-21T19:59:05.757Z,143.17
2019-02-21T20:01:35.090Z,166.63
2019-02-21T20:04:04.074Z,152.60
2019-02-21T20:06:33.101Z,149.47
2019-02-21T20:09:02.185Z,161.27
2019-02-21T20:11:31.240Z,158.67
2019-02-21T20:14:00.259Z,119.17
2019-02-21T20:16:29.327Z,112.00
2019-02-21T20:18:58.345Z,135.10
2019-02-21T20:21:27.498Z,119.63
2019-02-21T20:23:56.555Z,98.93
2019-02-21T20:26:25.611Z,117.50
2019-02-21T20:28:55.258Z,107.93
2019-02-21T20:31:24.482Z,107.67
2019-02-21T20:33:53.545Z,149.20
2019-02-21T20:36:22.566Z,117.17
2019-02-21T20:38:51.646Z,113.80
2019-02-21T20:41:20.590Z,103.77
2019-02-21T20:43:49.581Z,106.27
2019-02-21T20:46:18.589Z,91.97
2019-02-21T20:48:47.610Z,90.93
2019-02-21T20:51:16.670Z,77.17
2019-02-21T20:53:45.614Z,78.20
2019-02-21T20:56:14.549Z,83.37
2019-02-21T20:58:43.630Z,61.97
2019-02-21T21:01:12.699Z,58.43
2019-02-21T21:03:42.037Z,77.10
2019-02-21T21:06:11.080Z,70.30
2019-02-21T21:08:43.360Z,68.10
2019-02-21T21:11:10.878Z,58.10
2019-02-21T21:13:39.944Z,54.73
2019-02-21T21:16:09.003Z,59.20
2019-02-21T21:18:38.362Z,63.70
2019-02-21T21:21:07.343Z,53.03
2019-02-21T21:23:36.354Z,58.70
2019-02-21T21:26:05.413Z,55.17
2019-02-21T21:28:34.422Z,50.40
2019-02-21T21:31:03.480Z,52.77
2019-02-21T21:33:32.538Z,57.50
2019-02-21T21:36:01.772Z,49.90
2019-02-21T21:38:30.838Z,58.63
2019-02-21T21:41:00.290Z,53.67
2019-02-21T21:43:29.303Z,52.87
2019-02-21T21:45:58.357Z,60.63
2019-02-21T21:48:27.370Z,63.97
2019-02-21T21:50:56.425Z,57.70
2019-02-21T21:53:25.486Z,61.83
2019-02-21T21:55:54.493Z,50.17
2019-02-21T21:58:23.541Z,46.07
2019-02-21T22:00:52.684Z,42.60
2019-02-21T22:03:21.752Z,49.90
2019-02-21T22:05:50.688Z,43.27
2019-02-21T22:08:19.750Z,43.73
2019-02-21T22:10:49.046Z,47.13
2019-02-21T22:13:18.038Z,44.20
2019-02-21T22:15:46.977Z,47.70
2019-02-21T22:18:15.968Z,40.53
2019-02-21T22:20:45.003Z,44.30
2019-02-21T22:23:14.054Z,53.30
2019-02-21T22:25:43.114Z,44.07
2019-02-21T22:28:12.216Z,43.43
2019-02-21T22:30:41.243Z,52.10
2019-02-21T22:33:10.301Z,44.17
2019-02-21T22:35:39.318Z,45.47
2019-02-21T22:38:08.383Z,53.70
2019-02-21T22:40:37.399Z,53.03
2019-02-21T22:43:06.408Z,41.73
2019-02-21T22:45:35.464Z,44.20
2019-02-21T22:48:04.826Z,44.60
2019-02-21T22:50:33.888Z,38.93
2019-02-21T22:53:02.899Z,47.50
2019-02-21T22:55:32.201Z,47.20
2019-02-21T22:58:01.259Z,48.50
2019-02-21T23:01:05.409Z,50.03
2019-02-21T23:03:44.245Z,51.57
2019-02-21T23:06:36.877Z,62.27
2019-02-21T23:09:09.558Z,60.53
2019-02-21T23:11:38.577Z,59.53
2019-02-21T23:14:07.627Z,66.27
2019-02-21T23:16:36.982Z,63.40
2019-02-21T23:19:06.032Z,58.90
2019-02-21T23:21:35.089Z,57.90
2019-02-21T23:24:04.103Z,62.77
2019-02-21T23:26:33.149Z,59.10
2019-02-21T23:29:02.542Z,55.73
2019-02-21T23:31:31.601Z,50.07
2019-02-21T23:34:01.011Z,55.13
2019-02-21T23:36:30.357Z,46.93
2019-02-21T23:38:59.375Z,49.47
2019-02-21T23:41:28.442Z,44.53
2019-02-21T23:43:57.460Z,42.13
2019-02-21T23:46:26.514Z,45.50
2019-02-21T23:48:55.527Z,44.73
2019-02-21T23:51:24.843Z,38.00
2019-02-21T23:54:02.838Z,36.37
2019-02-21T23:56:24.693Z,42.50
2019-02-21T23:58:53.721Z,37.43
